Time;durP1;ratioP1;P1;durP2;ratioP2;P2;SDS_P1;SDS_P2;PMS_P1;PMS_P2;Temp;Humidity;BMP_temperature;BMP_pressure;BME280_temperature;BME280_humidity;BME280_pressure;Samples;Min_cycle;Max_cycle;Signal;HPM_P1;HPM_P2
2023/06/17 04:00:56;;;;;;;0.60;0.13;;;18.90;1.00;;;;;;5828217;23;20487;-72
2023/06/17 04:03:25;;;;;;;1.47;1.03;;;18.90;1.00;;;;;;4938128;29;20459;-72
2023/06/17 04:05:53;;;;;;;0.60;0.10;;;18.80;1.00;;;;;;4934439;29;20510;-72
2023/06/17 04:08:22;;;;;;;0.60;0.10;;;18.60;1.00;;;;;;4934965;29;20442;-72
2023/06/17 04:10:50;;;;;;;0.60;0.20;;;18.50;1.00;;;;;;4945545;28;20996;-72
2023/06/17 04:13:17;;;;;;;0.60;0.20;;;18.50;1.00;;;;;;4974055;28;20522;-72
2023/06/17 04:15:46;;;;;;;0.60;0.10;;;18.50;1.00;;;;;;4973983;28;20870;-73
2023/06/17 04:18:16;;;;;;;0.60;0.20;;;;;;;;;;4949478;23;20599;-72
2023/06/17 04:20:44;;;;;;;0.60;0.10;;;18.80;1.00;;;;;;4917112;29;20558;-72
2023/06/17 04:23:13;;;;;;;0.60;0.20;;;18.90;1.00;;;;;;4917209;29;20448;-72
2023/06/17 04:25:43;;;;;;;0.60;0.10;;;18.90;1.00;;;;;;4916935;29;20790;-72
2023/06/17 04:28:12;;;;;;;0.60;0.10;;;19.00;1.00;;;;;;4909564;29;20465;-72
2023/06/17 04:30:40;;;;;;;0.60;0.10;;;19.00;1.00;;;;;;4917050;29;20504;-72
2023/06/17 04:33:11;;;;;;;0.60;0.10;;;19.10;1.00;;;;;;4916406;29;20481;-72
2023/06/17 04:35:42;;;;;;;0.60;0.13;;;19.10;1.00;;;;;;4916127;29;20452;-73
2023/06/17 04:38:10;;;;;;;0.60;0.20;;;18.90;1.00;;;;;;4916645;29;20488;-72
2023/06/17 04:40:39;;;;;;;0.60;0.20;;;;;;;;;;4916663;29;20572;-72
2023/06/17 04:43:06;;;;;;;0.60;0.10;;;19.00;1.00;;;;;;4916262;29;20455;-72
2023/06/17 04:45:35;;;;;;;0.60;0.20;;;19.00;1.00;;;;;;4916199;29;20540;-72
2023/06/17 04:48:05;;;;;;;0.60;0.10;;;19.00;1.00;;;;;;4916143;29;20499;-73
2023/06/17 04:50:34;;;;;;;0.60;0.10;;;19.00;1.00;;;;;;4915786;29;20487;-72
2023/06/17 04:53:04;;;;;;;0.60;0.10;;;19.00;1.00;;;;;;4915917;29;20452;-72
2023/06/17 04:55:35;;;;;;;0.60;0.10;;;19.10;1.00;;;;;;4916167;29;20459;-73
2023/06/17 04:58:03;;;;;;;0.60;0.10;;;19.20;1.00;;;;;;4915231;29;20491;-72
2023/06/17 05:00:31;;;;;;;0.60;0.10;;;19.30;1.00;;;;;;4915614;29;20483;-73
2023/06/17 05:02:59;;;;;;;0.60;0.20;;;19.20;1.00;;;;;;4915226;29;20480;-72
2023/06/17 05:05:27;;;;;;;0.60;0.20;;;19.30;1.00;;;;;;4920648;29;20518;-73
2023/06/17 05:07:55;;;;;;;0.60;0.10;;;19.20;1.00;;;;;;4935082;29;20468;-73
2023/06/17 05:10:24;;;;;;;0.60;0.10;;;19.20;1.00;;;;;;4917913;29;20466;-72
2023/06/17 05:12:52;;;;;;;0.60;0.20;;;19.30;1.00;;;;;;4915703;29;20480;-72
2023/06/17 05:15:20;;;;;;;0.60;0.10;;;19.20;1.00;;;;;;4915707;29;20459;-73
2023/06/17 05:17:48;;;;;;;0.60;0.10;;;19.20;1.00;;;;;;4915538;29;20574;-73
2023/06/17 05:20:16;;;;;;;0.60;0.17;;;19.20;1.00;;;;;;4915413;29;20456;-72
2023/06/17 05:22:44;;;;;;;0.60;0.30;;;19.30;1.00;;;;;;4915362;29;20539;-73
2023/06/17 05:25:12;;;;;;;0.60;0.10;;;19.30;1.00;;;;;;4915889;29;20481;-73
2023/06/17 05:27:42;;;;;;;0.60;0.10;;;19.30;1.00;;;;;;4915357;29;20472;-73
2023/06/17 05:30:11;;;;;;;0.60;0.20;;;19.30;1.00;;;;;;4915390;29;20457;-73
2023/06/17 05:32:38;;;;;;;0.60;0.20;;;19.40;1.00;;;;;;4915108;29;20457;-72
2023/06/17 05:35:07;;;;;;;0.60;0.10;;;19.50;1.00;;;;;;4915629;29;20947;-72
2023/06/17 05:37:35;;;;;;;0.60;0.20;;;19.50;1.00;;;;;;4915147;29;20563;-73
2023/06/17 05:40:03;;;;;;;0.60;0.20;;;19.50;1.00;;;;;;4915835;29;20550;-73
2023/06/17 05:42:31;;;;;;;0.60;0.10;;;19.60;1.00;;;;;;4915486;29;20581;-73
2023/06/17 05:45:00;;;;;;;0.60;0.10;;;19.70;1.00;;;;;;4916149;29;20834;-73
2023/06/17 05:47:28;;;;;;;0.60;0.20;;;19.80;1.00;;;;;;4915781;29;20465;-73
2023/06/17 05:49:56;;;;;;;0.60;0.20;;;19.90;1.00;;;;;;4916351;29;20954;-73
2023/06/17 05:52:24;;;;;;;0.63;0.20;;;19.90;1.00;;;;;;4916810;29;20532;-72
2023/06/17 05:54:52;;;;;;;0.60;0.23;;;20.00;1.00;;;;;;4917135;29;20464;-74
2023/06/17 05:57:21;;;;;;;0.60;0.20;;;20.00;1.00;;;;;;4917781;29;20504;-72
2023/06/17 05:59:49;;;;;;;0.60;0.10;;;20.00;1.00;;;;;;4917868;29;20476;-73
2023/06/17 06:02:18;;;;;;;0.60;0.20;;;20.00;1.00;;;;;;4916943;29;20884;-72
2023/06/17 06:04:47;;;;;;;0.90;0.60;;;20.00;1.00;;;;;;4917536;29;20459;-72
2023/06/17 06:07:15;;;;;;;0.60;0.10;;;20.10;1.00;;;;;;4916902;29;20496;-72
2023/06/17 06:09:43;;;;;;;0.60;0.10;;;20.00;1.00;;;;;;4916375;29;20513;-72
2023/06/17 06:12:12;;;;;;;0.60;0.10;;;20.00;1.00;;;;;;4916212;29;20970;-72
2023/06/17 06:14:40;;;;;;;0.60;0.10;;;20.00;1.00;;;;;;4917040;29;20456;-73
2023/06/17 06:17:08;;;;;;;0.60;0.20;;;;;;;;;;4920305;29;20539;-72
2023/06/17 06:19:37;;;;;;;0.60;0.10;;;20.10;1.00;;;;;;4918921;29;20580;-72
2023/06/17 06:22:05;;;;;;;0.60;0.20;;;20.00;1.00;;;;;;4916926;29;20478;-72
2023/06/17 06:24:33;;;;;;;0.60;0.10;;;20.20;1.00;;;;;;4914864;29;20461;-72
2023/06/17 06:27:01;;;;;;;0.60;0.10;;;20.20;1.00;;;;;;4915293;29;20492;-73
2023/06/17 06:29:29;;;;;;;0.60;0.20;;;20.20;1.00;;;;;;4915766;29;20446;-73
2023/06/17 06:31:57;;;;;;;0.60;0.10;;;20.30;1.00;;;;;;4916813;29;20944;-71
2023/06/17 06:34:25;;;;;;;0.60;0.10;;;20.40;1.00;;;;;;4918728;29;20458;-73
2023/06/17 06:36:56;;;;;;;0.60;0.13;;;20.60;1.00;;;;;;4918172;29;20476;-72
2023/06/17 06:39:24;;;;;;;0.60;0.20;;;20.60;1.00;;;;;;4918715;29;20543;-72
2023/06/17 06:41:52;;;;;;;0.60;0.10;;;20.70;1.00;;;;;;4918609;29;20503;-73
2023/06/17 06:44:20;;;;;;;0.60;0.10;;;20.90;1.00;;;;;;4918382;29;20521;-74
2023/06/17 06:46:48;;;;;;;0.60;0.20;;;21.20;1.00;;;;;;4905152;29;20474;-71
2023/06/17 06:49:16;;;;;;;0.60;0.10;;;21.20;1.00;;;;;;4899653;29;21009;-71
2023/06/17 06:51:44;;;;;;;0.60;0.10;;;21.30;1.00;;;;;;4910476;29;20464;-71
2023/06/17 06:54:13;;;;;;;0.60;0.13;;;21.40;1.00;;;;;;4917846;29;20548;-71
2023/06/17 06:56:41;;;;;;;0.60;0.10;;;21.50;1.00;;;;;;4919545;29;20559;-72
2023/06/17 06:59:09;;;;;;;0.60;0.13;;;21.50;1.00;;;;;;4919593;29;20536;-71
2023/06/17 07:01:37;;;;;;;0.60;0.10;;;21.60;1.00;;;;;;4918476;29;20459;-71
2023/06/17 07:04:05;;;;;;;0.60;0.10;;;21.70;1.00;;;;;;4918743;29;20938;-72
2023/06/17 07:06:33;;;;;;;0.67;0.20;;;21.90;1.00;;;;;;4917996;29;20469;-72
2023/06/17 07:09:01;;;;;;;0.60;0.10;;;21.90;1.00;;;;;;4918412;29;20455;-71
2023/06/17 07:11:30;;;;;;;0.70;0.10;;;22.00;1.00;;;;;;4918317;29;20529;-73
2023/06/17 07:13:58;;;;;;;0.70;0.20;;;22.10;1.00;;;;;;4917517;29;20544;-73
2023/06/17 07:16:26;;;;;;;0.70;0.20;;;;;;;;;;4917516;29;20520;-71
2023/06/17 07:18:54;;;;;;;0.67;0.10;;;22.10;1.00;;;;;;4917986;29;20482;-72
2023/06/17 07:21:22;;;;;;;0.70;0.20;;;22.20;1.00;;;;;;4913915;29;20664;-71
2023/06/17 07:23:51;;;;;;;0.60;0.10;;;22.30;1.00;;;;;;4918455;29;20481;-72
2023/06/17 07:26:19;;;;;;;0.70;0.10;;;22.40;1.00;;;;;;4918234;29;20473;-72
2023/06/17 07:28:48;;;;;;;0.70;0.10;;;22.40;1.00;;;;;;4918022;29;20545;-72
2023/06/17 07:31:16;;;;;;;0.70;0.10;;;22.50;1.00;;;;;;4918966;29;20529;-72
2023/06/17 07:33:44;;;;;;;0.70;0.13;;;22.60;1.00;;;;;;4918913;29;20461;-72
2023/06/17 07:36:12;;;;;;;1.53;1.40;;;22.60;1.00;;;;;;4918363;29;20552;-72
2023/06/17 07:38:40;;;;;;;0.70;0.10;;;;;;;;;;4918156;29;20532;-71
2023/06/17 07:41:08;;;;;;;0.70;0.20;;;22.60;1.00;;;;;;4918709;29;20966;-71
2023/06/17 07:43:36;;;;;;;0.70;0.10;;;22.60;1.00;;;;;;4917972;29;20457;-71
2023/06/17 07:46:05;;;;;;;0.70;0.10;;;22.60;1.00;;;;;;4917765;29;21004;-71
2023/06/17 07:48:35;;;;;;;0.70;0.10;;;22.70;1.00;;;;;;4916882;29;20491;-71
2023/06/17 07:51:03;;;;;;;0.70;0.20;;;22.70;1.00;;;;;;4917285;29;20451;-73
2023/06/17 07:53:31;;;;;;;0.70;0.10;;;22.80;1.00;;;;;;4916804;29;20454;-72
2023/06/17 07:55:59;;;;;;;1.20;0.90;;;22.80;1.00;;;;;;4916637;29;20456;-71
2023/06/17 07:58:26;;;;;;;2.30;2.20;;;22.90;1.00;;;;;;4917236;29;20889;-72
2023/06/17 08:00:54;;;;;;;0.70;0.10;;;23.00;1.00;;;;;;4918082;29;20486;-73
2023/06/17 08:03:24;;;;;;;0.70;0.10;;;23.00;1.00;;;;;;4916814;29;20890;-72
2023/06/17 08:05:52;;;;;;;0.70;0.10;;;23.10;1.00;;;;;;4917120;29;20457;-73
2023/06/17 08:08:20;;;;;;;0.70;0.20;;;23.10;1.00;;;;;;4917484;29;20921;-72
2023/06/17 08:10:48;;;;;;;0.80;0.33;;;23.10;1.00;;;;;;4917930;29;20503;-72
2023/06/17 08:13:16;;;;;;;0.70;0.20;;;23.20;1.00;;;;;;4914163;29;20474;-72
2023/06/17 08:15:44;;;;;;;0.70;0.10;;;23.20;1.00;;;;;;4916990;29;20446;-72
2023/06/17 08:18:13;;;;;;;0.70;0.20;;;;;;;;;;4898473;29;20492;-72
2023/06/17 08:20:43;;;;;;;0.70;0.10;;;;;;;;;;4900060;29;20587;-73
2023/06/17 08:23:10;;;;;;;0.70;0.13;;;23.40;1.00;;;;;;4898868;29;20997;-72
2023/06/17 08:25:39;;;;;;;0.87;0.47;;;23.40;1.00;;;;;;4910868;29;20454;-72
2023/06/17 08:28:07;;;;;;;0.70;0.20;;;23.40;1.00;;;;;;4917233;29;20475;-71
2023/06/17 08:30:35;;;;;;;0.70;0.10;;;23.50;1.00;;;;;;4918760;29;20527;-72
2023/06/17 08:33:03;;;;;;;0.70;0.17;;;23.60;1.00;;;;;;4918681;29;20830;-72
2023/06/17 08:35:31;;;;;;;1.57;0.80;;;23.60;1.00;;;;;;4918203;29;20454;-71
2023/06/17 08:38:01;;;;;;;0.70;0.17;;;23.60;1.00;;;;;;4918871;29;20525;-73
2023/06/17 08:40:30;;;;;;;0.70;0.10;;;23.70;1.00;;;;;;4918285;29;21014;-74
2023/06/17 08:43:03;;;;;;;0.70;0.20;;;23.70;1.00;;;;;;4919719;29;20451;-72
2023/06/17 08:45:31;;;;;;;0.70;0.10;;;23.70;1.00;;;;;;4917846;29;20451;-72
2023/06/17 08:48:00;;;;;;;0.70;0.20;;;23.80;1.00;;;;;;4917781;29;20482;-73
2023/06/17 08:50:29;;;;;;;0.90;0.43;;;23.90;1.00;;;;;;4916587;29;20509;-70
2023/06/17 08:53:02;;;;;;;0.70;0.20;;;23.90;1.00;;;;;;4916483;29;20546;-73
2023/06/17 08:55:30;;;;;;;1.17;1.07;;;23.90;1.00;;;;;;4915897;29;20451;-72
2023/06/17 08:57:58;;;;;;;0.70;0.20;;;24.00;1.00;;;;;;4915601;29;20850;-72
2023/06/17 09:00:26;;;;;;;0.70;0.10;;;24.10;1.00;;;;;;4918600;29;20904;-72
2023/06/17 09:02:57;;;;;;;1.00;0.50;;;24.10;1.00;;;;;;4917443;29;20438;-74
2023/06/17 09:05:25;;;;;;;0.70;0.20;;;24.20;1.00;;;;;;4917787;29;20459;-73
2023/06/17 09:07:53;;;;;;;0.70;0.17;;;24.20;1.00;;;;;;4916167;29;20562;-71
2023/06/17 09:10:22;;;;;;;0.70;0.20;;;24.20;1.00;;;;;;4916975;29;20475;-72
2023/06/17 09:12:50;;;;;;;0.70;0.20;;;24.20;1.00;;;;;;4916470;29;20951;-72
2023/06/17 09:15:18;;;;;;;1.23;0.83;;;24.30;1.00;;;;;;4916600;29;20493;-73
2023/06/17 09:17:47;;;;;;;0.70;0.20;;;24.30;1.00;;;;;;4916962;29;20478;-73
2023/06/17 09:20:16;;;;;;;0.70;0.10;;;24.30;1.00;;;;;;4917119;29;20483;-73
2023/06/17 09:22:47;;;;;;;0.70;0.20;;;24.40;1.00;;;;;;4919698;29;20457;-73
2023/06/17 09:25:18;;;;;;;0.70;0.10;;;24.50;1.00;;;;;;4921850;29;20445;-73
2023/06/17 09:27:49;;;;;;;1.47;1.13;;;24.70;1.00;;;;;;4920424;29;20466;-72
2023/06/17 09:30:43;;;;;;;0.80;0.30;;;24.60;1.00;;;;;;4921155;29;20475;-73
2023/06/17 09:33:18;;;;;;;0.70;0.10;;;24.40;1.00;;;;;;4915917;29;20965;-73
2023/06/17 09:35:47;;;;;;;1.67;1.13;;;24.50;1.00;;;;;;4916839;29;20487;-73
2023/06/17 09:38:17;;;;;;;0.70;0.20;;;24.60;1.00;;;;;;4919226;29;20481;-73
2023/06/17 09:40:49;;;;;;;0.70;0.20;;;24.80;1.00;;;;;;4918550;29;20886;-74
2023/06/17 09:43:20;;;;;;;0.70;0.10;;;24.80;1.00;;;;;;4917049;29;20456;-72
2023/06/17 09:45:55;;;;;;;0.70;0.20;;;24.90;1.00;;;;;;4925845;29;20463;-73
2023/06/17 09:48:29;;;;;;;0.70;0.10;;;;;;;;;;4916562;29;21072;-72
2023/06/17 09:50:57;;;;;;;0.70;0.20;;;25.20;1.00;;;;;;4916158;29;20459;-73
2023/06/17 09:53:29;;;;;;;0.70;0.10;;;25.30;1.00;;;;;;4915796;29;20526;-72
2023/06/17 09:55:59;;;;;;;2.07;0.97;;;25.50;1.00;;;;;;4915367;29;20823;-72
2023/06/17 09:58:31;;;;;;;0.70;0.10;;;25.40;1.00;;;;;;4915515;29;20528;-73
2023/06/17 10:01:02;;;;;;;0.70;0.30;;;;;;;;;;4915589;29;20480;-75
2023/06/17 10:03:31;;;;;;;1.60;1.50;;;25.40;1.00;;;;;;4915988;29;20460;-72
2023/06/17 10:06:07;;;;;;;0.70;0.17;;;25.40;1.00;;;;;;4916949;29;20531;-73
2023/06/17 10:08:37;;;;;;;0.70;0.10;;;25.20;1.00;;;;;;4918739;29;20508;-73
2023/06/17 10:11:05;;;;;;;0.70;0.20;;;25.30;1.00;;;;;;4918298;29;20463;-73
2023/06/17 10:13:37;;;;;;;0.70;0.10;;;25.30;1.00;;;;;;4918562;29;20464;-73
2023/06/17 10:16:07;;;;;;;0.70;0.10;;;25.40;1.00;;;;;;4906639;29;20939;-72
2023/06/17 10:18:38;;;;;;;0.70;0.10;;;25.50;1.00;;;;;;4957261;23;20502;-71
2023/06/17 10:21:08;;;;;;;4.57;4.27;;;25.60;1.00;;;;;;4936214;29;21008;-71
2023/06/17 10:23:37;;;;;;;0.70;0.10;;;25.70;1.00;;;;;;4941034;29;20459;-73
2023/06/17 10:26:06;;;;;;;0.70;0.20;;;25.70;1.00;;;;;;4956735;29;20457;-71
2023/06/17 10:28:45;;;;;;;0.70;0.20;;;25.70;1.00;;;;;;4957062;28;20501;-71
2023/06/17 10:31:32;;;;;;;0.70;0.20;;;25.70;1.00;;;;;;4945658;29;20813;-71
2023/06/17 10:34:03;;;;;;;0.70;0.20;;;25.60;1.00;;;;;;4958320;28;21015;-72
2023/06/17 10:36:35;;;;;;;0.70;0.40;;;25.60;1.00;;;;;;4948613;29;20507;-70
2023/06/17 10:39:06;;;;;;;0.70;0.10;;;25.70;1.00;;;;;;4955052;28;20477;-72
2023/06/17 10:41:59;;;;;;;0.70;0.10;;;25.70;1.00;;;;;;4951915;29;20493;-71
2023/06/17 10:44:42;;;;;;;0.70;0.10;;;25.80;1.00;;;;;;4954820;29;20442;-72
2023/06/17 10:47:21;;;;;;;0.70;0.10;;;26.00;1.00;;;;;;4955358;29;20506;-70
2023/06/17 10:49:50;;;;;;;0.70;0.20;;;26.20;1.00;;;;;;4955094;29;20462;-73
2023/06/17 10:52:20;;;;;;;0.70;0.10;;;26.20;1.00;;;;;;4953032;29;20457;-70
2023/06/17 10:54:51;;;;;;;3.77;2.10;;;26.30;1.00;;;;;;4953267;29;20488;-74
2023/06/17 10:57:33;;;;;;;0.70;0.10;;;26.40;1.00;;;;;;4954973;29;20990;-72
2023/06/17 11:00:08;;;;;;;0.70;0.10;;;26.40;1.00;;;;;;4954854;29;20562;-72
2023/06/17 11:02:37;;;;;;;0.80;0.53;;;26.30;1.00;;;;;;4955367;28;20976;-73
2023/06/17 11:05:06;;;;;;;0.70;0.20;;;26.20;1.00;;;;;;4956739;29;21013;-74
2023/06/17 11:07:34;;;;;;;0.70;0.20;;;26.10;1.00;;;;;;4959665;29;20553;-72
2023/06/17 11:10:03;;;;;;;0.70;0.10;;;26.10;1.00;;;;;;4953283;29;20458;-75
2023/06/17 11:12:31;;;;;;;0.70;0.10;;;26.00;1.00;;;;;;4962487;29;20442;-75
2023/06/17 11:14:59;;;;;;;0.70;0.10;;;26.20;1.00;;;;;;4962152;29;20458;-72
2023/06/17 11:17:29;;;;;;;0.70;0.10;;;26.40;1.00;;;;;;4958260;28;20482;-72
2023/06/17 11:20:01;;;;;;;0.70;0.20;;;26.40;1.00;;;;;;4955138;29;20454;-73
2023/06/17 11:22:29;;;;;;;0.70;0.13;;;26.50;1.00;;;;;;4949827;29;20486;-72
2023/06/17 11:24:58;;;;;;;0.80;0.30;;;26.60;1.00;;;;;;4955503;29;20527;-72
2023/06/17 11:27:26;;;;;;;0.70;0.20;;;26.70;1.00;;;;;;4954324;29;20989;-73
2023/06/17 11:29:54;;;;;;;0.90;0.43;;;26.70;1.00;;;;;;4955839;29;20485;-72
2023/06/17 11:32:22;;;;;;;1.53;1.43;;;26.70;1.00;;;;;;4955464;29;20855;-73
2023/06/17 11:34:53;;;;;;;0.80;0.33;;;26.50;1.00;;;;;;4955780;29;20442;-73
2023/06/17 11:37:21;;;;;;;0.70;0.30;;;;;;;;;;4958863;29;20481;-72
2023/06/17 11:39:49;;;;;;;0.70;0.10;;;26.50;1.00;;;;;;4954981;28;20448;-72
2023/06/17 11:42:17;;;;;;;0.70;0.20;;;26.60;1.00;;;;;;4939777;29;20483;-73
2023/06/17 11:44:46;;;;;;;0.70;0.17;;;26.60;1.00;;;;;;4938666;29;20531;-72
2023/06/17 11:47:14;;;;;;;1.37;0.67;;;26.80;1.00;;;;;;4938330;29;21037;-73
2023/06/17 11:49:42;;;;;;;0.70;0.23;;;26.80;1.00;;;;;;4936313;29;20507;-73
2023/06/17 11:52:13;;;;;;;0.70;0.20;;;26.80;1.00;;;;;;4936188;29;20826;-73
2023/06/17 11:54:48;;;;;;;0.70;0.10;;;;;;;;;;4936218;29;20471;-72
2023/06/17 11:57:21;;;;;;;0.70;0.10;;;26.90;1.00;;;;;;4936353;29;20498;-73
2023/06/17 11:59:49;;;;;;;1.07;0.50;;;27.00;1.00;;;;;;4936092;29;20455;-73
2023/06/17 12:02:18;;;;;;;0.70;0.10;;;27.10;1.00;;;;;;4936059;29;20574;-73
2023/06/17 12:04:46;;;;;;;0.70;0.10;;;27.10;1.00;;;;;;4935880;29;20495;-72
2023/06/17 12:07:16;;;;;;;0.70;0.30;;;27.20;1.00;;;;;;4937740;29;20478;-72
2023/06/17 12:09:51;;;;;;;0.70;0.20;;;27.30;1.00;;;;;;4954418;29;20549;-73
2023/06/17 12:12:27;;;;;;;0.70;0.10;;;27.30;1.00;;;;;;4955478;29;20517;-72
2023/06/17 12:15:01;;;;;;;0.90;0.60;;;27.30;1.00;;;;;;4954604;29;20442;-73
2023/06/17 12:17:43;;;;;;;0.70;0.20;;;27.30;1.00;;;;;;4954801;29;20505;-72
2023/06/17 12:20:16;;;;;;;0.70;0.20;;;27.30;1.00;;;;;;4953742;28;20461;-72
2023/06/17 12:22:47;;;;;;;0.80;0.43;;;27.30;1.00;;;;;;4954793;29;20485;-73
2023/06/17 12:25:15;;;;;;;0.80;0.40;;;27.40;1.00;;;;;;4956026;29;20518;-71
2023/06/17 12:27:43;;;;;;;0.70;0.20;;;27.30;1.00;;;;;;4952374;29;20573;-74
2023/06/17 12:30:12;;;;;;;0.70;0.10;;;27.30;1.00;;;;;;4950969;28;20454;-75
2023/06/17 12:32:42;;;;;;;0.70;0.20;;;27.40;1.00;;;;;;4954627;29;20450;-75
2023/06/17 12:35:11;;;;;;;0.70;0.20;;;27.60;1.00;;;;;;4940207;29;20455;-74
2023/06/17 12:37:41;;;;;;;0.70;0.20;;;27.80;1.00;;;;;;4954221;29;20875;-73
2023/06/17 12:40:12;;;;;;;0.70;0.20;;;27.80;1.00;;;;;;4949458;29;20482;-75
2023/06/17 12:42:40;;;;;;;0.70;0.10;;;27.90;1.00;;;;;;4953890;29;20498;-73
2023/06/17 12:45:09;;;;;;;1.03;0.90;;;27.80;1.00;;;;;;4953795;29;20529;-73
2023/06/17 12:47:37;;;;;;;0.70;0.27;;;27.50;1.00;;;;;;4956778;28;21044;-72
2023/06/17 12:50:06;;;;;;;2.10;1.90;;;27.50;1.00;;;;;;4952595;28;20466;-74
2023/06/17 12:52:38;;;;;;;1.00;0.77;;;27.40;1.00;;;;;;4953025;29;20477;-73
2023/06/17 12:55:07;;;;;;;1.10;0.60;;;27.40;1.00;;;;;;4960991;28;20481;-73
2023/06/17 12:57:37;;;;;;;0.93;0.80;;;27.50;1.00;;;;;;4952946;29;20462;-74
2023/06/17 13:00:06;;;;;;;0.70;0.10;;;27.50;1.00;;;;;;4953328;29;20439;-73
2023/06/17 13:02:35;;;;;;;2.87;2.10;;;27.50;1.00;;;;;;4952451;29;21027;-73
2023/06/17 13:05:05;;;;;;;0.70;0.20;;;27.70;1.00;;;;;;4955718;29;20446;-74
2023/06/17 13:07:33;;;;;;;0.70;0.10;;;27.90;1.00;;;;;;4955494;29;20521;-75
2023/06/17 13:10:01;;;;;;;0.70;0.10;;;;;;;;;;4953256;29;20517;-74
2023/06/17 13:12:29;;;;;;;0.70;0.40;;;28.20;1.00;;;;;;4953177;29;20489;-72
2023/06/17 13:15:02;;;;;;;2.93;0.97;;;28.30;1.00;;;;;;4954005;29;20455;-73
2023/06/17 13:17:33;;;;;;;1.03;0.73;;;28.30;1.00;;;;;;4952545;29;20480;-74
2023/06/17 13:20:03;;;;;;;0.70;0.20;;;28.20;1.00;;;;;;4953273;29;20562;-72
2023/06/17 13:22:31;;;;;;;0.70;0.10;;;28.10;1.00;;;;;;4953419;29;20533;-73
2023/06/17 13:24:59;;;;;;;0.80;0.30;;;28.20;1.00;;;;;;4953969;29;20489;-73
2023/06/17 13:27:28;;;;;;;0.70;0.20;;;28.30;1.00;;;;;;4953605;29;20796;-73
2023/06/17 13:29:56;;;;;;;0.70;0.10;;;28.20;1.00;;;;;;4954059;28;20433;-73
2023/06/17 13:32:25;;;;;;;0.70;0.10;;;28.10;1.00;;;;;;4950272;28;20800;-73
2023/06/17 13:34:54;;;;;;;0.70;0.20;;;27.90;1.00;;;;;;4957918;28;20447;-72
2023/06/17 13:37:22;;;;;;;0.70;0.10;;;27.80;1.00;;;;;;4946809;29;20525;-72
2023/06/17 13:39:50;;;;;;;2.10;1.23;;;;;;;;;;4950057;28;20529;-72
2023/06/17 13:42:18;;;;;;;0.70;0.10;;;27.90;1.00;;;;;;4955007;29;20486;-72
2023/06/17 13:44:46;;;;;;;0.90;0.73;;;;;;;;;;4955734;29;20684;-71
2023/06/17 13:47:15;;;;;;;0.80;0.33;;;28.10;1.00;;;;;;4956662;29;20549;-73
2023/06/17 13:49:44;;;;;;;0.70;0.30;;;28.10;1.00;;;;;;4957706;29;20632;-72
2023/06/17 13:52:12;;;;;;;0.70;0.20;;;28.00;1.00;;;;;;4958569;29;20531;-73
2023/06/17 13:54:41;;;;;;;0.70;0.10;;;;;;;;;;4957756;29;20473;-72
2023/06/17 13:57:09;;;;;;;0.70;0.10;;;27.80;1.00;;;;;;4957642;29;20482;-72
2023/06/17 13:59:38;;;;;;;0.70;0.10;;;27.80;1.00;;;;;;4956028;29;20549;-71
2023/06/17 14:02:07;;;;;;;0.70;0.10;;;27.70;1.00;;;;;;4957354;29;21166;-71
2023/06/17 14:04:35;;;;;;;0.70;0.20;;;27.80;1.00;;;;;;4951628;29;20474;-72
2023/06/17 14:07:05;;;;;;;0.80;0.20;;;28.20;1.00;;;;;;4943255;29;20536;-73
2023/06/17 14:09:33;;;;;;;0.70;0.10;;;28.20;1.00;;;;;;4957800;28;20867;-71
2023/06/17 14:12:02;;;;;;;0.70;0.20;;;28.50;1.00;;;;;;4956858;29;20435;-71
2023/06/17 14:14:30;;;;;;;1.03;0.47;;;28.60;1.00;;;;;;4957331;29;20474;-72
2023/06/17 14:16:59;;;;;;;0.70;0.10;;;28.80;1.00;;;;;;4956690;29;20534;-72
2023/06/17 14:19:28;;;;;;;0.70;0.20;;;28.80;1.00;;;;;;4955999;29;20440;-72
2023/06/17 14:21:57;;;;;;;0.70;0.10;;;29.00;1.00;;;;;;4955854;29;20442;-71
2023/06/17 14:24:26;;;;;;;0.70;0.20;;;29.10;1.00;;;;;;4975769;28;20474;-71
2023/06/17 14:26:59;;;;;;;0.70;0.20;;;29.50;1.00;;;;;;4966402;28;20460;-71
2023/06/17 14:29:27;;;;;;;0.70;0.10;;;29.60;1.00;;;;;;4956125;29;20791;-71
2023/06/17 14:31:55;;;;;;;0.90;0.63;;;29.60;1.00;;;;;;4955217;28;20444;-72
2023/06/17 14:34:23;;;;;;;0.70;0.20;;;29.80;1.00;;;;;;4952140;29;20469;-73
2023/06/17 14:36:51;;;;;;;0.70;0.20;;;29.70;1.00;;;;;;4950855;28;20488;-71
2023/06/17 14:39:19;;;;;;;0.70;0.10;;;29.70;1.00;;;;;;4956608;29;21022;-74
2023/06/17 14:41:48;;;;;;;0.70;0.30;;;29.60;1.00;;;;;;4956846;29;20468;-73
2023/06/17 14:44:16;;;;;;;0.70;0.20;;;29.10;1.00;;;;;;4955886;29;20828;-72
2023/06/17 14:46:44;;;;;;;0.70;0.20;;;29.60;1.00;;;;;;4956381;29;20453;-72
2023/06/17 14:49:11;;;;;;;0.90;0.53;;;29.70;1.00;;;;;;4956241;29;20579;-73
2023/06/17 14:51:39;;;;;;;0.70;0.10;;;29.70;1.00;;;;;;4946936;28;20492;-73
2023/06/17 14:54:07;;;;;;;0.70;0.10;;;29.80;1.00;;;;;;4954785;29;20535;-72
2023/06/17 14:56:35;;;;;;;0.70;0.10;;;29.90;1.00;;;;;;4955766;29;20480;-73
2023/06/17 14:59:05;;;;;;;0.70;0.10;;;30.00;1.00;;;;;;4955202;28;20509;-72
2023/06/17 15:01:34;;;;;;;0.70;0.20;;;30.20;1.00;;;;;;4952592;29;20465;-72
2023/06/17 15:04:03;;;;;;;0.70;0.30;;;30.30;1.00;;;;;;4951401;29;21055;-72
2023/06/17 15:06:31;;;;;;;0.70;0.20;;;30.40;1.00;;;;;;4954269;29;20461;-71
2023/06/17 15:09:27;;;;;;;0.70;0.10;;;30.30;1.00;;;;;;4951856;28;20565;-72
2023/06/17 15:11:56;;;;;;;0.70;0.10;;;30.40;1.00;;;;;;4911035;29;20979;-73
2023/06/17 15:14:28;;;;;;;0.70;0.20;;;30.50;1.00;;;;;;4951312;29;20445;-73
2023/06/17 15:16:55;;;;;;;0.90;0.20;;;30.60;1.00;;;;;;4954176;29;20503;-72
2023/06/17 15:19:24;;;;;;;0.70;0.10;;;30.60;1.00;;;;;;4942512;29;20446;-73
2023/06/17 15:21:52;;;;;;;0.70;0.20;;;30.70;1.00;;;;;;4954604;29;20752;-72
2023/06/17 15:24:19;;;;;;;0.70;0.20;;;30.70;1.00;;;;;;4973340;28;20528;-73
2023/06/17 15:26:47;;;;;;;1.00;0.37;;;30.80;1.00;;;;;;4974150;28;20481;-72
2023/06/17 15:29:16;;;;;;;0.70;0.20;;;30.80;1.00;;;;;;4974222;28;20544;-72
2023/06/17 15:31:45;;;;;;;0.70;0.20;;;30.70;1.00;;;;;;4973209;28;20558;-73
2023/06/17 15:34:13;;;;;;;0.70;0.20;;;30.70;1.00;;;;;;4942662;28;20456;-72
2023/06/17 15:36:41;;;;;;;1.23;1.13;;;30.70;1.00;;;;;;4938881;29;20943;-74
2023/06/17 15:39:17;;;;;;;0.70;0.10;;;30.70;1.00;;;;;;4941584;29;20475;-71
2023/06/17 15:41:46;;;;;;;0.70;0.10;;;30.80;1.00;;;;;;4942104;29;20459;-71
2023/06/17 15:44:15;;;;;;;0.70;0.20;;;30.90;1.00;;;;;;4938547;28;20494;-72
2023/06/17 15:46:43;;;;;;;0.70;0.10;;;30.90;1.00;;;;;;4954245;29;20452;-72
2023/06/17 15:49:13;;;;;;;0.80;0.30;;;30.80;1.00;;;;;;4948356;29;20478;-72
2023/06/17 15:51:41;;;;;;;0.70;0.13;;;31.00;1.00;;;;;;4955001;29;20486;-72
2023/06/17 15:54:10;;;;;;;1.27;0.73;;;31.00;1.00;;;;;;4954391;29;20484;-73
2023/06/17 15:56:39;;;;;;;1.27;0.73;;;31.00;1.00;;;;;;4954067;28;20466;-72
2023/06/17 15:59:07;;;;;;;0.70;0.20;;;30.90;1.00;;;;;;4954567;28;20478;-72
2023/06/17 16:01:35;;;;;;;1.40;0.70;;;30.90;1.00;;;;;;4955870;29;20875;-71
2023/06/17 16:04:39;;;;;;;0.70;0.10;;;30.90;1.00;;;;;;4953219;28;21039;-71
2023/06/17 16:07:10;;;;;;;0.70;0.20;;;30.90;1.00;;;;;;4954996;28;20482;-71
2023/06/17 16:09:41;;;;;;;0.70;0.10;;;30.90;1.00;;;;;;4955491;29;20446;-73
2023/06/17 16:12:11;;;;;;;0.70;0.20;;;31.00;1.00;;;;;;4955216;29;20454;-75
2023/06/17 16:14:40;;;;;;;0.70;0.20;;;31.10;1.00;;;;;;4955573;29;20460;-71
2023/06/17 16:17:10;;;;;;;0.70;0.17;;;31.20;1.00;;;;;;4955798;29;20534;-70
2023/06/17 16:19:38;;;;;;;0.70;0.17;;;31.20;1.00;;;;;;4952698;29;20452;-74
2023/06/17 16:22:10;;;;;;;0.70;0.20;;;31.30;1.00;;;;;;4954952;29;20453;-74
2023/06/17 16:24:39;;;;;;;0.80;0.30;;;31.40;1.00;;;;;;4955043;29;20486;-73
2023/06/17 16:27:08;;;;;;;0.70;0.17;;;31.60;1.00;;;;;;4955753;29;20491;-74
2023/06/17 16:29:36;;;;;;;0.90;0.73;;;31.60;1.00;;;;;;4954559;29;20450;-73
2023/06/17 16:32:05;;;;;;;0.70;0.20;;;31.60;1.00;;;;;;4953762;28;20448;-72
2023/06/17 16:34:33;;;;;;;0.70;0.20;;;31.70;1.00;;;;;;4957109;28;20894;-73
2023/06/17 16:37:01;;;;;;;0.70;0.20;;;31.80;1.00;;;;;;4936326;29;20468;-74
2023/06/17 16:39:30;;;;;;;1.90;1.30;;;31.80;1.00;;;;;;4936143;29;20511;-73
2023/06/17 16:41:58;;;;;;;0.70;0.20;;;31.90;1.00;;;;;;4954957;29;21001;-73
2023/06/17 16:44:25;;;;;;;1.00;0.30;;;31.70;1.00;;;;;;4955057;29;21024;-73
2023/06/17 16:46:54;;;;;;;0.80;0.20;;;31.70;1.00;;;;;;4955611;29;21172;-73
2023/06/17 16:49:22;;;;;;;0.70;0.20;;;31.70;1.00;;;;;;4956205;29;20539;-72
2023/06/17 16:51:49;;;;;;;0.70;0.20;;;31.70;1.00;;;;;;4953838;29;20466;-73
2023/06/17 16:54:17;;;;;;;0.70;0.10;;;31.70;1.00;;;;;;4959758;28;20447;-72
2023/06/17 16:56:46;;;;;;;0.70;0.20;;;31.70;1.00;;;;;;4955148;29;20462;-74
2023/06/17 16:59:15;;;;;;;0.70;0.20;;;31.70;1.00;;;;;;4951719;28;20505;-72
2023/06/17 17:01:43;;;;;;;0.70;0.17;;;31.70;1.00;;;;;;4956415;28;20948;-73
2023/06/17 17:04:12;;;;;;;0.70;0.20;;;31.60;1.00;;;;;;4958100;28;20565;-72
2023/06/17 17:06:41;;;;;;;0.70;0.20;;;31.60;1.00;;;;;;4954087;29;20546;-73
2023/06/17 17:09:10;;;;;;;0.70;0.10;;;;;;;;;;4953893;29;20859;-74
2023/06/17 17:11:38;;;;;;;0.70;0.20;;;31.70;1.00;;;;;;4954967;28;21021;-73
2023/06/17 17:14:08;;;;;;;0.70;0.20;;;31.70;1.00;;;;;;4960279;28;20574;-74